This is the latest recevied weather packets stored in our database for station/object EA3ANS-1. If no packets are shown the sender has not sent any weather packets the latest 10 day(s).
| Time | Temp. | Humidity | Pressure | Rain* | Wind** | Luminosity | Snow |
|---|---|---|---|---|---|---|---|
| 1787820429 | 28.33° C | - | 1010.8 hPa | 0 mm | 0.45 m/s, 195° | - | - |
| 1787819817 | 28.33° C | - | 1010.7 hPa | 0 mm | 0 m/s | - | - |
| 1787819220 | 28.33° C | - | 1010.4 hPa | 0 mm | 0 m/s | - | - |
| 1787818619 | 28.33° C | - | 1010.1 hPa | 0 mm | 0 m/s | - | - |
| 1787818021 | 27.22° C | - | 1010.1 hPa | 0 mm | 1.34 m/s, 307° | - | - |
| 1787817420 | 26.67° C | - | 1010.1 hPa | 0 mm | 0.45 m/s, 311° | - | - |
| 1787816818 | 26.67° C | - | 1010 hPa | 0 mm | 1.34 m/s, 354° | - | - |
| 1787816219 | 26.67° C | - | 1009.9 hPa | 0 mm | 0 m/s | - | - |
| 1787815616 | 26.11° C | - | 1009.9 hPa | 0 mm | 0 m/s | - | - |
| 1787815018 | 25.56° C | - | 1009.9 hPa | 0 mm | 0 m/s | - | - |
| 1787814417 | 26.11° C | - | 1009.8 hPa | 0 mm | 0 m/s | - | - |
| 1787813808 | 25.56° C | - | 1009.9 hPa | 0 mm | 0 m/s | - | - |
| 1787813210 | 25.56° C | - | 1009.7 hPa | 0 mm | 0 m/s | - | - |
| 1787812613 | 25° C | - | 1009.5 hPa | 0 mm | 0.89 m/s, 308° | - | - |
| 1787812016 | 25° C | - | 1009.5 hPa | 0 mm | 1.34 m/s, 354° | - | - |
| 1787811411 | 25° C | - | 1009.5 hPa | 0 mm | 1.34 m/s, 352° | - | - |
| 1787810813 | 25° C | - | 1009.5 hPa | 0 mm | 2.24 m/s, 318° | - | - |
| 1787810205 | 25° C | - | 1008.6 hPa | 0 mm | 1.79 m/s, 343° | - | - |
| 1787809608 | 24.44° C | - | 1008.8 hPa | 0 mm | 1.79 m/s, 297° | - | - |
| 1787809011 | 25° C | - | 1009 hPa | 0 mm | 0 m/s | - | - |
| 1787808411 | 24.44° C | - | 1009.2 hPa | 0 mm | 1.34 m/s, 328° | - | - |
| 1787807810 | 24.44° C | - | 1008.1 hPa | 0 mm | 1.79 m/s, 343° | - | - |
| 1787807200 | 24.44° C | - | 1009.1 hPa | 0 mm | 1.79 m/s, 297° | - | - |
| 1787806601 | 25° C | - | 1009.1 hPa | 0 mm | 2.68 m/s, 347° | - | - |
| 1787806003 | 25° C | - | 1009 hPa | 0 mm | 0.45 m/s, 293° | - | - |
* Rain latest hour (hover to see other rain measurements)
** Current wind speed in m/s (hover to see current wind gust speed)